sensor_id;sensor_type;location;lat;lon;timestamp;temperature;humidity
45409;DHT22;31162;51.076;3.784;2023-07-16T00:00:30;18.00;99.90
45409;DHT22;31162;51.076;3.784;2023-07-16T00:02:55;18.00;99.90
45409;DHT22;31162;51.076;3.784;2023-07-16T00:05:21;17.90;99.90
45409;DHT22;31162;51.076;3.784;2023-07-16T00:07:47;17.90;99.90
45409;DHT22;31162;51.076;3.784;2023-07-16T00:10:13;17.90;99.90
45409;DHT22;31162;51.076;3.784;2023-07-16T00:12:38;17.80;99.90
45409;DHT22;31162;51.076;3.784;2023-07-16T00:15:04;17.80;99.90
45409;DHT22;31162;51.076;3.784;2023-07-16T00:17:31;17.80;99.90
45409;DHT22;31162;51.076;3.784;2023-07-16T00:19:58;17.80;99.90
45409;DHT22;31162;51.076;3.784;2023-07-16T00:22:23;17.80;99.90
45409;DHT22;31162;51.076;3.784;2023-07-16T00:24:49;17.70;99.90
45409;DHT22;31162;51.076;3.784;2023-07-16T00:27:15;17.70;99.90
45409;DHT22;31162;51.076;3.784;2023-07-16T00:29:40;17.60;99.90
45409;DHT22;31162;51.076;3.784;2023-07-16T00:32:06;17.70;99.90
45409;DHT22;31162;51.076;3.784;2023-07-16T00:34:32;17.60;99.90
45409;DHT22;31162;51.076;3.784;2023-07-16T00:36:57;17.60;99.90
45409;DHT22;31162;51.076;3.784;2023-07-16T00:39:30;17.50;99.90
45409;DHT22;31162;51.076;3.784;2023-07-16T00:41:56;17.60;99.90
45409;DHT22;31162;51.076;3.784;2023-07-16T00:44:22;17.60;99.90
45409;DHT22;31162;51.076;3.784;2023-07-16T00:46:48;17.60;99.90
45409;DHT22;31162;51.076;3.784;2023-07-16T00:49:14;17.50;99.90
45409;DHT22;31162;51.076;3.784;2023-07-16T00:51:40;17.50;99.90
45409;DHT22;31162;51.076;3.784;2023-07-16T00:54:07;17.50;99.90
45409;DHT22;31162;51.076;3.784;2023-07-16T00:56:32;17.40;99.90
45409;DHT22;31162;51.076;3.784;2023-07-16T00:58:58;17.50;99.90
45409;DHT22;31162;51.076;3.784;2023-07-16T01:01:23;17.50;99.90
45409;DHT22;31162;51.076;3.784;2023-07-16T01:03:49;17.50;99.90
45409;DHT22;31162;51.076;3.784;2023-07-16T01:11:21;17.50;99.90
45409;DHT22;31162;51.076;3.784;2023-07-16T01:13:47;17.50;99.90
45409;DHT22;31162;51.076;3.784;2023-07-16T01:16:24;17.50;99.90
45409;DHT22;31162;51.076;3.784;2023-07-16T01:18:50;17.40;99.90
45409;DHT22;31162;51.076;3.784;2023-07-16T01:21:19;17.50;99.90
45409;DHT22;31162;51.076;3.784;2023-07-16T01:29:21;17.50;99.90
45409;DHT22;31162;51.076;3.784;2023-07-16T01:31:53;17.40;99.90
45409;DHT22;31162;51.076;3.784;2023-07-16T01:34:21;17.50;99.90
45409;DHT22;31162;51.076;3.784;2023-07-16T01:36:47;17.50;99.90
45409;DHT22;31162;51.076;3.784;2023-07-16T01:39:13;17.50;99.90
45409;DHT22;31162;51.076;3.784;2023-07-16T01:41:39;17.40;99.90
45409;DHT22;31162;51.076;3.784;2023-07-16T01:44:05;17.40;99.90
45409;DHT22;31162;51.076;3.784;2023-07-16T01:46:31;17.50;99.90
45409;DHT22;31162;51.076;3.784;2023-07-16T01:48:57;17.50;99.90
45409;DHT22;31162;51.076;3.784;2023-07-16T01:51:22;17.50;99.90
45409;DHT22;31162;51.076;3.784;2023-07-16T01:53:48;17.60;99.90
45409;DHT22;31162;51.076;3.784;2023-07-16T01:56:13;17.60;99.90
45409;DHT22;31162;51.076;3.784;2023-07-16T01:58:39;17.70;99.90
45409;DHT22;31162;51.076;3.784;2023-07-16T02:01:05;17.80;99.90
45409;DHT22;31162;51.076;3.784;2023-07-16T02:03:30;17.80;99.90
45409;DHT22;31162;51.076;3.784;2023-07-16T02:05:56;17.90;99.90
45409;DHT22;31162;51.076;3.784;2023-07-16T02:08:22;17.90;99.90
45409;DHT22;31162;51.076;3.784;2023-07-16T02:10:48;17.90;99.90
45409;DHT22;31162;51.076;3.784;2023-07-16T02:13:14;17.90;99.90
45409;DHT22;31162;51.076;3.784;2023-07-16T02:15:39;17.80;99.90
45409;DHT22;31162;51.076;3.784;2023-07-16T02:18:06;17.80;99.90
45409;DHT22;31162;51.076;3.784;2023-07-16T02:20:31;17.70;99.90
45409;DHT22;31162;51.076;3.784;2023-07-16T02:22:57;17.60;99.90
45409;DHT22;31162;51.076;3.784;2023-07-16T02:25:23;17.60;99.90
45409;DHT22;31162;51.076;3.784;2023-07-16T02:27:48;17.50;99.90
45409;DHT22;31162;51.076;3.784;2023-07-16T02:30:15;17.60;99.90
45409;DHT22;31162;51.076;3.784;2023-07-16T02:32:41;17.60;99.90
45409;DHT22;31162;51.076;3.784;2023-07-16T02:35:07;17.60;99.90
45409;DHT22;31162;51.076;3.784;2023-07-16T02:37:33;17.60;99.90
45409;DHT22;31162;51.076;3.784;2023-07-16T02:39:59;17.60;99.90
45409;DHT22;31162;51.076;3.784;2023-07-16T02:42:25;17.50;99.90
45409;DHT22;31162;51.076;3.784;2023-07-16T02:44:50;17.50;99.90
45409;DHT22;31162;51.076;3.784;2023-07-16T02:47:16;17.40;99.90
45409;DHT22;31162;51.076;3.784;2023-07-16T02:49:42;17.30;99.90
45409;DHT22;31162;51.076;3.784;2023-07-16T02:52:07;17.30;99.90
45409;DHT22;31162;51.076;3.784;2023-07-16T02:54:35;17.30;99.90
45409;DHT22;31162;51.076;3.784;2023-07-16T02:57:00;17.20;99.90
45409;DHT22;31162;51.076;3.784;2023-07-16T02:59:26;17.20;99.90
45409;DHT22;31162;51.076;3.784;2023-07-16T03:01:52;17.30;99.90
45409;DHT22;31162;51.076;3.784;2023-07-16T03:04:19;17.30;99.90
45409;DHT22;31162;51.076;3.784;2023-07-16T03:06:45;17.30;99.90
45409;DHT22;31162;51.076;3.784;2023-07-16T03:09:11;17.20;99.90
45409;DHT22;31162;51.076;3.784;2023-07-16T03:11:37;17.30;99.90
45409;DHT22;31162;51.076;3.784;2023-07-16T03:14:02;17.30;99.90
45409;DHT22;31162;51.076;3.784;2023-07-16T03:16:28;17.40;99.90
45409;DHT22;31162;51.076;3.784;2023-07-16T03:18:53;17.40;99.90
45409;DHT22;31162;51.076;3.784;2023-07-16T03:21:19;17.50;99.90
45409;DHT22;31162;51.076;3.784;2023-07-16T03:23:45;17.60;99.90
45409;DHT22;31162;51.076;3.784;2023-07-16T03:26:11;17.60;99.90
45409;DHT22;31162;51.076;3.784;2023-07-16T03:28:36;17.70;99.90
45409;DHT22;31162;51.076;3.784;2023-07-16T03:31:02;17.70;99.90
45409;DHT22;31162;51.076;3.784;2023-07-16T03:33:28;17.70;99.90
45409;DHT22;31162;51.076;3.784;2023-07-16T03:35:53;17.70;99.90
45409;DHT22;31162;51.076;3.784;2023-07-16T03:38:19;17.70;99.90
45409;DHT22;31162;51.076;3.784;2023-07-16T03:40:48;17.60;99.90
45409;DHT22;31162;51.076;3.784;2023-07-16T03:43:15;17.50;99.90
45409;DHT22;31162;51.076;3.784;2023-07-16T03:45:42;17.50;99.90
45409;DHT22;31162;51.076;3.784;2023-07-16T03:48:07;17.50;99.90
45409;DHT22;31162;51.076;3.784;2023-07-16T03:50:34;17.40;99.90
45409;DHT22;31162;51.076;3.784;2023-07-16T03:53:00;17.20;99.90
45409;DHT22;31162;51.076;3.784;2023-07-16T03:55:26;17.20;99.90
45409;DHT22;31162;51.076;3.784;2023-07-16T03:57:52;17.30;99.90
45409;DHT22;31162;51.076;3.784;2023-07-16T04:00:18;17.30;99.90
45409;DHT22;31162;51.076;3.784;2023-07-16T04:02:43;17.40;99.90
45409;DHT22;31162;51.076;3.784;2023-07-16T04:05:09;17.40;99.90
45409;DHT22;31162;51.076;3.784;2023-07-16T04:07:35;17.30;99.90
45409;DHT22;31162;51.076;3.784;2023-07-16T04:10:01;17.20;99.90
45409;DHT22;31162;51.076;3.784;2023-07-16T04:12:27;17.20;99.90
45409;DHT22;31162;51.076;3.784;2023-07-16T04:14:57;17.30;99.90
45409;DHT22;31162;51.076;3.784;2023-07-16T04:17:23;17.20;99.90
45409;DHT22;31162;51.076;3.784;2023-07-16T04:19:49;17.20;99.90
45409;DHT22;31162;51.076;3.784;2023-07-16T04:22:14;17.20;99.90
45409;DHT22;31162;51.076;3.784;2023-07-16T04:24:40;17.20;99.90
45409;DHT22;31162;51.076;3.784;2023-07-16T04:27:06;17.20;99.90
45409;DHT22;31162;51.076;3.784;2023-07-16T04:29:31;17.30;99.90
45409;DHT22;31162;51.076;3.784;2023-07-16T04:31:57;17.20;99.90
45409;DHT22;31162;51.076;3.784;2023-07-16T04:34:23;17.30;99.90
45409;DHT22;31162;51.076;3.784;2023-07-16T04:36:48;17.30;99.90
45409;DHT22;31162;51.076;3.784;2023-07-16T04:39:14;17.30;99.90
45409;DHT22;31162;51.076;3.784;2023-07-16T04:41:40;17.60;99.90
45409;DHT22;31162;51.076;3.784;2023-07-16T04:44:06;17.70;99.90
45409;DHT22;31162;51.076;3.784;2023-07-16T04:46:31;17.80;99.90
45409;DHT22;31162;51.076;3.784;2023-07-16T04:48:57;17.80;99.90
45409;DHT22;31162;51.076;3.784;2023-07-16T04:51:23;17.80;99.90
45409;DHT22;31162;51.076;3.784;2023-07-16T04:53:49;17.80;99.90
45409;DHT22;31162;51.076;3.784;2023-07-16T04:56:15;17.70;99.90
45409;DHT22;31162;51.076;3.784;2023-07-16T04:58:42;17.70;99.90
45409;DHT22;31162;51.076;3.784;2023-07-16T05:01:08;17.70;99.90
45409;DHT22;31162;51.076;3.784;2023-07-16T05:03:34;17.70;99.90
45409;DHT22;31162;51.076;3.784;2023-07-16T05:06:00;17.80;99.90
45409;DHT22;31162;51.076;3.784;2023-07-16T05:08:25;17.90;99.90
45409;DHT22;31162;51.076;3.784;2023-07-16T05:10:51;18.00;99.90
45409;DHT22;31162;51.076;3.784;2023-07-16T05:13:17;18.10;99.90
45409;DHT22;31162;51.076;3.784;2023-07-16T05:15:46;18.10;99.90
45409;DHT22;31162;51.076;3.784;2023-07-16T05:18:11;18.20;99.90
45409;DHT22;31162;51.076;3.784;2023-07-16T05:20:37;18.10;99.90
45409;DHT22;31162;51.076;3.784;2023-07-16T05:23:03;18.20;99.90
45409;DHT22;31162;51.076;3.784;2023-07-16T05:25:29;18.30;99.90
45409;DHT22;31162;51.076;3.784;2023-07-16T05:27:55;18.30;99.90
45409;DHT22;31162;51.076;3.784;2023-07-16T05:30:21;18.50;99.90
45409;DHT22;31162;51.076;3.784;2023-07-16T05:32:46;18.50;99.90
45409;DHT22;31162;51.076;3.784;2023-07-16T05:35:12;18.50;99.90
45409;DHT22;31162;51.076;3.784;2023-07-16T05:37:38;18.40;99.90
45409;DHT22;31162;51.076;3.784;2023-07-16T05:40:04;18.30;99.90
45409;DHT22;31162;51.076;3.784;2023-07-16T05:42:30;18.30;99.90
45409;DHT22;31162;51.076;3.784;2023-07-16T05:44:55;18.40;99.90
45409;DHT22;31162;51.076;3.784;2023-07-16T05:47:21;18.40;99.90
45409;DHT22;31162;51.076;3.784;2023-07-16T05:49:47;18.50;99.90
45409;DHT22;31162;51.076;3.784;2023-07-16T05:52:13;18.50;99.90
45409;DHT22;31162;51.076;3.784;2023-07-16T05:54:38;18.60;99.90
45409;DHT22;31162;51.076;3.784;2023-07-16T05:57:04;18.60;99.90
45409;DHT22;31162;51.076;3.784;2023-07-16T05:59:30;18.60;99.90
45409;DHT22;31162;51.076;3.784;2023-07-16T06:01:59;18.60;99.90
45409;DHT22;31162;51.076;3.784;2023-07-16T06:04:25;18.90;99.90
45409;DHT22;31162;51.076;3.784;2023-07-16T06:06:51;19.20;99.90
45409;DHT22;31162;51.076;3.784;2023-07-16T06:09:16;19.30;99.90
45409;DHT22;31162;51.076;3.784;2023-07-16T06:11:42;19.40;99.90
45409;DHT22;31162;51.076;3.784;2023-07-16T06:14:08;19.40;99.90
45409;DHT22;31162;51.076;3.784;2023-07-16T06:16:34;19.40;99.90
45409;DHT22;31162;51.076;3.784;2023-07-16T06:18:59;19.50;99.90
45409;DHT22;31162;51.076;3.784;2023-07-16T06:21:25;19.60;99.90
45409;DHT22;31162;51.076;3.784;2023-07-16T06:23:50;19.90;99.90
45409;DHT22;31162;51.076;3.784;2023-07-16T06:26:16;20.20;99.90
45409;DHT22;31162;51.076;3.784;2023-07-16T06:28:42;20.40;99.90
45409;DHT22;31162;51.076;3.784;2023-07-16T06:31:07;20.60;99.90
45409;DHT22;31162;51.076;3.784;2023-07-16T06:33:33;21.00;99.90
45409;DHT22;31162;51.076;3.784;2023-07-16T06:35:59;21.40;99.90
45409;DHT22;31162;51.076;3.784;2023-07-16T06:38:24;21.80;99.90
45409;DHT22;31162;51.076;3.784;2023-07-16T06:40:51;21.60;99.90
45409;DHT22;31162;51.076;3.784;2023-07-16T06:43:17;21.40;99.90
45409;DHT22;31162;51.076;3.784;2023-07-16T06:45:43;21.60;99.90
45409;DHT22;31162;51.076;3.784;2023-07-16T06:48:09;22.00;99.90
45409;DHT22;31162;51.076;3.784;2023-07-16T06:50:34;22.10;99.90
45409;DHT22;31162;51.076;3.784;2023-07-16T06:53:00;22.10;99.90
45409;DHT22;31162;51.076;3.784;2023-07-16T06:55:26;21.90;99.90
45409;DHT22;31162;51.076;3.784;2023-07-16T06:57:52;22.20;99.90
45409;DHT22;31162;51.076;3.784;2023-07-16T07:00:17;22.80;99.90
45409;DHT22;31162;51.076;3.784;2023-07-16T07:02:43;23.60;99.90
45409;DHT22;31162;51.076;3.784;2023-07-16T07:05:09;24.50;99.90
45409;DHT22;31162;51.076;3.784;2023-07-16T07:07:35;25.00;99.90
45409;DHT22;31162;51.076;3.784;2023-07-16T07:10:01;25.50;99.90
45409;DHT22;31162;51.076;3.784;2023-07-16T07:12:26;27.40;97.80
45409;DHT22;31162;51.076;3.784;2023-07-16T07:14:52;28.10;95.80
45409;DHT22;31162;51.076;3.784;2023-07-16T07:17:18;29.20;94.10
45409;DHT22;31162;51.076;3.784;2023-07-16T07:19:44;29.60;93.00
45409;DHT22;31162;51.076;3.784;2023-07-16T07:22:09;30.60;91.90
45409;DHT22;31162;51.076;3.784;2023-07-16T07:24:35;30.80;91.00
45409;DHT22;31162;51.076;3.784;2023-07-16T07:27:01;29.00;91.30
45409;DHT22;31162;51.076;3.784;2023-07-16T07:29:26;28.50;92.20
45409;DHT22;31162;51.076;3.784;2023-07-16T07:31:52;27.90;92.50
45409;DHT22;31162;51.076;3.784;2023-07-16T07:34:18;27.30;93.00
45409;DHT22;31162;51.076;3.784;2023-07-16T07:36:44;26.30;93.80
45409;DHT22;31162;51.076;3.784;2023-07-16T07:39:10;25.50;94.50
45409;DHT22;31162;51.076;3.784;2023-07-16T07:41:36;25.20;95.70
45409;DHT22;31162;51.076;3.784;2023-07-16T07:44:01;24.70;95.70
45409;DHT22;31162;51.076;3.784;2023-07-16T07:46:27;24.60;96.30
45409;DHT22;31162;51.076;3.784;2023-07-16T07:48:53;24.50;96.20
45409;DHT22;31162;51.076;3.784;2023-07-16T07:51:19;24.40;96.60
45409;DHT22;31162;51.076;3.784;2023-07-16T07:53:45;24.20;96.80
45409;DHT22;31162;51.076;3.784;2023-07-16T07:56:11;24.30;96.80
45409;DHT22;31162;51.076;3.784;2023-07-16T07:58:37;25.50;96.30
45409;DHT22;31162;51.076;3.784;2023-07-16T08:01:06;26.10;95.20
45409;DHT22;31162;51.076;3.784;2023-07-16T08:03:32;26.00;95.40
45409;DHT22;31162;51.076;3.784;2023-07-16T08:05:58;25.50;95.50
45409;DHT22;31162;51.076;3.784;2023-07-16T08:08:23;25.10;95.90
45409;DHT22;31162;51.076;3.784;2023-07-16T08:10:49;24.50;96.40
45409;DHT22;31162;51.076;3.784;2023-07-16T08:13:15;23.80;97.40
45409;DHT22;31162;51.076;3.784;2023-07-16T08:15:40;23.50;98.00
45409;DHT22;31162;51.076;3.784;2023-07-16T08:18:06;23.70;98.40
45409;DHT22;31162;51.076;3.784;2023-07-16T08:20:32;23.90;98.00
45409;DHT22;31162;51.076;3.784;2023-07-16T08:22:57;23.50;98.00
45409;DHT22;31162;51.076;3.784;2023-07-16T08:25:23;23.10;99.20
45409;DHT22;31162;51.076;3.784;2023-07-16T08:27:49;23.10;99.40
45409;DHT22;31162;51.076;3.784;2023-07-16T08:30:14;23.00;99.80
45409;DHT22;31162;51.076;3.784;2023-07-16T08:32:40;22.90;99.80
45409;DHT22;31162;51.076;3.784;2023-07-16T08:35:06;23.20;99.80
45409;DHT22;31162;51.076;3.784;2023-07-16T08:37:32;23.30;99.50
45409;DHT22;31162;51.076;3.784;2023-07-16T08:39:57;23.00;99.90
45409;DHT22;31162;51.076;3.784;2023-07-16T08:42:24;22.80;99.90
45409;DHT22;31162;51.076;3.784;2023-07-16T08:44:50;22.40;99.90
45409;DHT22;31162;51.076;3.784;2023-07-16T08:47:16;22.00;99.90
45409;DHT22;31162;51.076;3.784;2023-07-16T08:49:53;22.10;99.90
45409;DHT22;31162;51.076;3.784;2023-07-16T08:52:20;22.10;99.90
45409;DHT22;31162;51.076;3.784;2023-07-16T08:54:45;22.10;99.90
45409;DHT22;31162;51.076;3.784;2023-07-16T08:57:12;22.00;99.90
45409;DHT22;31162;51.076;3.784;2023-07-16T08:59:38;21.80;99.90
45409;DHT22;31162;51.076;3.784;2023-07-16T09:02:05;21.70;99.90
45409;DHT22;31162;51.076;3.784;2023-07-16T09:04:32;21.60;99.90
45409;DHT22;31162;51.076;3.784;2023-07-16T09:06:58;21.70;99.90
45409;DHT22;31162;51.076;3.784;2023-07-16T09:09:24;21.70;99.90
45409;DHT22;31162;51.076;3.784;2023-07-16T09:11:50;21.50;99.90
45409;DHT22;31162;51.076;3.784;2023-07-16T09:14:20;21.50;99.90
45409;DHT22;31162;51.076;3.784;2023-07-16T09:16:50;21.40;99.90
45409;DHT22;31162;51.076;3.784;2023-07-16T09:19:15;21.30;99.90
45409;DHT22;31162;51.076;3.784;2023-07-16T09:21:46;21.40;99.90
45409;DHT22;31162;51.076;3.784;2023-07-16T09:24:12;21.50;99.90
45409;DHT22;31162;51.076;3.784;2023-07-16T09:26:38;21.30;99.90
45409;DHT22;31162;51.076;3.784;2023-07-16T09:29:07;21.10;99.90
45409;DHT22;31162;51.076;3.784;2023-07-16T09:31:35;20.90;99.90
45409;DHT22;31162;51.076;3.784;2023-07-16T09:34:01;20.50;99.90
45409;DHT22;31162;51.076;3.784;2023-07-16T09:36:27;20.20;99.90
45409;DHT22;31162;51.076;3.784;2023-07-16T09:38:57;20.10;99.90
45409;DHT22;31162;51.076;3.784;2023-07-16T09:41:23;20.20;99.90
45409;DHT22;31162;51.076;3.784;2023-07-16T09:43:50;20.40;99.90
45409;DHT22;31162;51.076;3.784;2023-07-16T09:46:15;21.00;99.90
45409;DHT22;31162;51.076;3.784;2023-07-16T09:48:41;22.00;99.90
45409;DHT22;31162;51.076;3.784;2023-07-16T09:51:07;22.20;99.90
45409;DHT22;31162;51.076;3.784;2023-07-16T09:53:40;22.50;99.90
45409;DHT22;31162;51.076;3.784;2023-07-16T09:56:09;22.90;99.90
45409;DHT22;31162;51.076;3.784;2023-07-16T09:58:35;24.50;99.90
45409;DHT22;31162;51.076;3.784;2023-07-16T10:01:02;25.80;99.60
45409;DHT22;31162;51.076;3.784;2023-07-16T10:03:28;25.70;98.40
45409;DHT22;31162;51.076;3.784;2023-07-16T10:05:53;25.20;98.80
45409;DHT22;31162;51.076;3.784;2023-07-16T10:08:33;26.30;97.90
45409;DHT22;31162;51.076;3.784;2023-07-16T10:11:02;26.70;97.00
45409;DHT22;31162;51.076;3.784;2023-07-16T10:13:27;26.40;96.90
45409;DHT22;31162;51.076;3.784;2023-07-16T10:15:55;25.90;97.20
45409;DHT22;31162;51.076;3.784;2023-07-16T10:18:31;25.20;98.00
45409;DHT22;31162;51.076;3.784;2023-07-16T10:21:07;24.90;98.50
45409;DHT22;31162;51.076;3.784;2023-07-16T10:23:37;25.00;98.70
45409;DHT22;31162;51.076;3.784;2023-07-16T10:26:05;24.60;98.40
45409;DHT22;31162;51.076;3.784;2023-07-16T10:28:35;24.20;99.30
45409;DHT22;31162;51.076;3.784;2023-07-16T10:31:02;25.30;98.20
45409;DHT22;31162;51.076;3.784;2023-07-16T10:33:29;26.30;97.30
45409;DHT22;31162;51.076;3.784;2023-07-16T10:35:57;28.70;95.50
45409;DHT22;31162;51.076;3.784;2023-07-16T10:38:26;29.60;94.30
45409;DHT22;31162;51.076;3.784;2023-07-16T10:40:52;31.80;92.00
45409;DHT22;31162;51.076;3.784;2023-07-16T10:43:18;31.20;91.20
45409;DHT22;31162;51.076;3.784;2023-07-16T10:45:44;31.10;90.90
45409;DHT22;31162;51.076;3.784;2023-07-16T10:48:12;30.80;90.40
45409;DHT22;31162;51.076;3.784;2023-07-16T10:50:38;30.00;91.30
45409;DHT22;31162;51.076;3.784;2023-07-16T10:53:04;29.20;90.60
45409;DHT22;31162;51.076;3.784;2023-07-16T10:55:30;30.00;89.80
45409;DHT22;31162;51.076;3.784;2023-07-16T10:57:58;30.30;89.70
45409;DHT22;31162;51.076;3.784;2023-07-16T11:00:23;30.00;89.20
45409;DHT22;31162;51.076;3.784;2023-07-16T11:02:52;30.90;88.80
45409;DHT22;31162;51.076;3.784;2023-07-16T11:05:18;31.60;87.10
45409;DHT22;31162;51.076;3.784;2023-07-16T11:07:48;31.40;87.70
45409;DHT22;31162;51.076;3.784;2023-07-16T11:10:18;31.20;87.20
45409;DHT22;31162;51.076;3.784;2023-07-16T11:12:44;29.90;88.10
45409;DHT22;31162;51.076;3.784;2023-07-16T11:15:10;29.70;88.40
45409;DHT22;31162;51.076;3.784;2023-07-16T11:17:38;29.30;89.00
45409;DHT22;31162;51.076;3.784;2023-07-16T11:20:07;30.10;87.50
45409;DHT22;31162;51.076;3.784;2023-07-16T11:22:36;30.30;87.70
45409;DHT22;31162;51.076;3.784;2023-07-16T11:25:02;31.40;86.50
45409;DHT22;31162;51.076;3.784;2023-07-16T11:27:30;30.80;86.10
45409;DHT22;31162;51.076;3.784;2023-07-16T11:30:00;29.90;87.00
45409;DHT22;31162;51.076;3.784;2023-07-16T11:32:30;29.80;88.10
45409;DHT22;31162;51.076;3.784;2023-07-16T11:34:57;30.00;87.60
45409;DHT22;31162;51.076;3.784;2023-07-16T11:37:27;29.10;88.80
45409;DHT22;31162;51.076;3.784;2023-07-16T11:39:57;28.70;88.80
45409;DHT22;31162;51.076;3.784;2023-07-16T11:42:31;27.90;90.30
45409;DHT22;31162;51.076;3.784;2023-07-16T11:44:57;27.30;90.50
45409;DHT22;31162;51.076;3.784;2023-07-16T11:47:23;26.30;91.10
45409;DHT22;31162;51.076;3.784;2023-07-16T11:49:49;25.70;91.90
45409;DHT22;31162;51.076;3.784;2023-07-16T11:52:20;25.10;92.70
45409;DHT22;31162;51.076;3.784;2023-07-16T11:54:46;24.70;93.50
45409;DHT22;31162;51.076;3.784;2023-07-16T11:57:12;24.90;93.50
45409;DHT22;31162;51.076;3.784;2023-07-16T11:59:38;25.90;93.20
45409;DHT22;31162;51.076;3.784;2023-07-16T12:02:03;28.00;91.50
45409;DHT22;31162;51.076;3.784;2023-07-16T12:04:29;28.30;90.90
45409;DHT22;31162;51.076;3.784;2023-07-16T12:06:55;27.80;91.30
45409;DHT22;31162;51.076;3.784;2023-07-16T12:09:21;27.30;91.50
45409;DHT22;31162;51.076;3.784;2023-07-16T12:11:46;27.00;91.70
45409;DHT22;31162;51.076;3.784;2023-07-16T12:14:12;27.40;92.20
45409;DHT22;31162;51.076;3.784;2023-07-16T12:16:38;27.70;91.80
45409;DHT22;31162;51.076;3.784;2023-07-16T12:19:06;27.60;91.90
45409;DHT22;31162;51.076;3.784;2023-07-16T12:21:32;27.80;91.60
45409;DHT22;31162;51.076;3.784;2023-07-16T12:23:58;27.90;91.30
45409;DHT22;31162;51.076;3.784;2023-07-16T12:26:23;27.90;91.50
45409;DHT22;31162;51.076;3.784;2023-07-16T12:28:49;27.90;91.20
45409;DHT22;31162;51.076;3.784;2023-07-16T12:31:15;27.50;91.30
45409;DHT22;31162;51.076;3.784;2023-07-16T12:33:42;27.60;91.20
45409;DHT22;31162;51.076;3.784;2023-07-16T12:36:08;27.90;91.00
45409;DHT22;31162;51.076;3.784;2023-07-16T12:38:33;27.90;90.60
45409;DHT22;31162;51.076;3.784;2023-07-16T12:40:59;27.80;90.20
45409;DHT22;31162;51.076;3.784;2023-07-16T12:43:24;27.70;90.10
45409;DHT22;31162;51.076;3.784;2023-07-16T12:45:50;27.50;90.30
45409;DHT22;31162;51.076;3.784;2023-07-16T12:48:16;27.20;90.30
45409;DHT22;31162;51.076;3.784;2023-07-16T12:50:41;26.30;90.80
45409;DHT22;31162;51.076;3.784;2023-07-16T12:53:08;25.80;91.50
45409;DHT22;31162;51.076;3.784;2023-07-16T12:55:33;25.90;91.40
45409;DHT22;31162;51.076;3.784;2023-07-16T12:57:59;25.80;91.90
45409;DHT22;31162;51.076;3.784;2023-07-16T13:00:25;26.00;91.60
45409;DHT22;31162;51.076;3.784;2023-07-16T13:02:51;26.10;91.80
45409;DHT22;31162;51.076;3.784;2023-07-16T13:05:16;26.50;91.70
45409;DHT22;31162;51.076;3.784;2023-07-16T13:07:42;26.40;91.40
45409;DHT22;31162;51.076;3.784;2023-07-16T13:10:08;26.30;91.80
45409;DHT22;31162;51.076;3.784;2023-07-16T13:12:34;26.50;91.50
45409;DHT22;31162;51.076;3.784;2023-07-16T13:15:00;26.70;91.20
45409;DHT22;31162;51.076;3.784;2023-07-16T13:17:26;26.30;91.40
45409;DHT22;31162;51.076;3.784;2023-07-16T13:19:51;26.20;91.30
45409;DHT22;31162;51.076;3.784;2023-07-16T13:22:17;26.00;91.30
45409;DHT22;31162;51.076;3.784;2023-07-16T13:24:43;26.30;91.60
45409;DHT22;31162;51.076;3.784;2023-07-16T13:27:18;26.70;91.10
45409;DHT22;31162;51.076;3.784;2023-07-16T13:29:44;26.90;91.10
45409;DHT22;31162;51.076;3.784;2023-07-16T13:32:10;27.40;90.70
45409;DHT22;31162;51.076;3.784;2023-07-16T13:34:35;27.50;89.60
45409;DHT22;31162;51.076;3.784;2023-07-16T13:37:01;27.00;90.30
45409;DHT22;31162;51.076;3.784;2023-07-16T13:39:27;26.70;90.60
45409;DHT22;31162;51.076;3.784;2023-07-16T13:41:52;26.60;91.10
45409;DHT22;31162;51.076;3.784;2023-07-16T13:44:18;26.30;91.20
45409;DHT22;31162;51.076;3.784;2023-07-16T13:46:44;25.90;91.20
45409;DHT22;31162;51.076;3.784;2023-07-16T13:49:09;25.60;91.90
45409;DHT22;31162;51.076;3.784;2023-07-16T13:51:35;25.60;91.90
45409;DHT22;31162;51.076;3.784;2023-07-16T13:54:00;25.40;91.80
45409;DHT22;31162;51.076;3.784;2023-07-16T13:56:26;25.70;92.50
45409;DHT22;31162;51.076;3.784;2023-07-16T13:58:52;26.30;91.70
45409;DHT22;31162;51.076;3.784;2023-07-16T14:01:19;26.50;91.40
45409;DHT22;31162;51.076;3.784;2023-07-16T14:03:45;26.60;91.20
45409;DHT22;31162;51.076;3.784;2023-07-16T14:06:10;26.70;91.20
45409;DHT22;31162;51.076;3.784;2023-07-16T14:08:36;26.80;91.20
45409;DHT22;31162;51.076;3.784;2023-07-16T14:11:02;27.20;91.50
45409;DHT22;31162;51.076;3.784;2023-07-16T14:13:28;27.30;90.70
45409;DHT22;31162;51.076;3.784;2023-07-16T14:15:54;27.50;91.00
45409;DHT22;31162;51.076;3.784;2023-07-16T14:18:20;27.10;91.00
45409;DHT22;31162;51.076;3.784;2023-07-16T14:20:46;26.90;91.30
45409;DHT22;31162;51.076;3.784;2023-07-16T14:23:11;26.90;91.30
45409;DHT22;31162;51.076;3.784;2023-07-16T14:25:37;26.90;91.10
45409;DHT22;31162;51.076;3.784;2023-07-16T14:28:03;26.90;91.30
45409;DHT22;31162;51.076;3.784;2023-07-16T14:30:29;26.70;91.20
45409;DHT22;31162;51.076;3.784;2023-07-16T14:32:55;26.40;91.30
45409;DHT22;31162;51.076;3.784;2023-07-16T14:35:21;26.00;91.40
45409;DHT22;31162;51.076;3.784;2023-07-16T14:37:47;25.60;92.00
45409;DHT22;31162;51.076;3.784;2023-07-16T14:40:13;25.50;92.80
45409;DHT22;31162;51.076;3.784;2023-07-16T14:42:39;25.30;92.70
45409;DHT22;31162;51.076;3.784;2023-07-16T14:45:05;25.20;92.40
45409;DHT22;31162;51.076;3.784;2023-07-16T14:47:33;25.30;92.50
45409;DHT22;31162;51.076;3.784;2023-07-16T14:49:59;25.60;92.40
45409;DHT22;31162;51.076;3.784;2023-07-16T14:52:24;25.70;92.10
45409;DHT22;31162;51.076;3.784;2023-07-16T14:54:50;26.00;92.20
45409;DHT22;31162;51.076;3.784;2023-07-16T14:57:16;26.00;92.20
45409;DHT22;31162;51.076;3.784;2023-07-16T14:59:42;25.90;91.40
45409;DHT22;31162;51.076;3.784;2023-07-16T15:02:09;25.70;91.70
45409;DHT22;31162;51.076;3.784;2023-07-16T15:04:34;25.40;92.50
45409;DHT22;31162;51.076;3.784;2023-07-16T15:07:00;25.10;92.70
45409;DHT22;31162;51.076;3.784;2023-07-16T15:09:26;25.00;92.90
45409;DHT22;31162;51.076;3.784;2023-07-16T15:11:52;24.70;92.80
45409;DHT22;31162;51.076;3.784;2023-07-16T15:14:18;24.50;93.40
45409;DHT22;31162;51.076;3.784;2023-07-16T15:16:44;24.00;94.20
45409;DHT22;31162;51.076;3.784;2023-07-16T15:19:09;23.50;96.10
45409;DHT22;31162;51.076;3.784;2023-07-16T15:21:37;22.80;97.30
45409;DHT22;31162;51.076;3.784;2023-07-16T15:24:04;22.30;98.70
45409;DHT22;31162;51.076;3.784;2023-07-16T15:26:30;22.10;99.40
45409;DHT22;31162;51.076;3.784;2023-07-16T15:28:57;22.10;99.90
45409;DHT22;31162;51.076;3.784;2023-07-16T15:31:22;22.40;99.90
45409;DHT22;31162;51.076;3.784;2023-07-16T15:33:56;22.70;99.80